Time;durP1;ratioP1;P1;durP2;ratioP2;P2;SDS_P1;SDS_P2;PMS_P1;PMS_P2;Temp;Humidity;BMP_temperature;BMP_pressure;BME280_temperature;BME280_humidity;BME280_pressure;Samples;Min_cycle;Max_cycle;Signal;HPM_P1;HPM_P2
2022/12/31 00:00:34;;;;;;;6.95;3.03;;;;;;;16.91;63.53;97812.91;5124958;27;20441;-26
2022/12/31 00:02:59;;;;;;;5.55;3.17;;;;;;;16.85;63.67;97813.44;5111999;28;20093;-26
2022/12/31 00:05:25;;;;;;;6.75;3.15;;;;;;;16.86;63.72;97806.75;5112026;27;20073;-28
2022/12/31 00:07:50;;;;;;;6.88;3.30;;;;;;;16.93;63.51;97816.00;5125401;27;20019;-26
2022/12/31 00:10:15;;;;;;;7.80;3.45;;;;;;;16.87;63.53;97818.50;5111598;28;20023;-26
2022/12/31 00:12:41;;;;;;;5.82;3.47;;;;;;;16.95;63.35;97813.56;5111667;28;20433;-26
2022/12/31 00:15:07;;;;;;;7.88;3.15;;;;;;;16.95;63.41;97819.81;5112132;28;20525;-26
2022/12/31 00:17:32;;;;;;;5.90;3.15;;;;;;;16.90;63.33;97816.88;5125541;28;20102;-26
2022/12/31 00:19:58;;;;;;;6.65;3.25;;;;;;;16.92;63.48;97825.41;5121894;28;20122;-26
2022/12/31 00:22:23;;;;;;;5.80;2.75;;;;;;;16.96;63.32;97828.81;5124203;27;20028;-26
2022/12/31 00:24:49;;;;;;;4.53;3.15;;;;;;;16.87;63.40;97832.19;5125178;28;20071;-26
2022/12/31 00:27:15;;;;;;;8.32;3.38;;;;;;;16.83;63.43;97832.28;5115304;28;20032;-26
2022/12/31 00:29:40;;;;;;;9.88;3.28;;;;;;;16.87;63.29;97832.97;5111586;28;20055;-26
2022/12/31 00:32:06;;;;;;;5.10;3.00;;;;;;;16.90;63.50;97836.03;5111221;28;20053;-26
2022/12/31 00:34:31;;;;;;;7.03;3.33;;;;;;;16.92;63.26;97826.19;5111531;28;20509;-25
2022/12/31 00:36:56;;;;;;;8.32;3.00;;;;;;;16.96;63.21;97840.53;5111439;28;20433;-26
2022/12/31 00:39:22;;;;;;;5.18;2.65;;;;;;;16.89;63.01;97829.78;5111535;28;20027;-26
2022/12/31 00:41:47;;;;;;;6.95;3.13;;;;;;;16.87;63.20;97835.69;5112108;28;20045;-26
2022/12/31 00:44:13;;;;;;;5.38;2.78;;;;;;;16.83;63.46;97837.75;5111613;28;20019;-26
2022/12/31 00:46:39;;;;;;;6.72;2.97;;;;;;;16.83;63.40;97832.28;5111264;28;20028;-26
2022/12/31 00:49:04;;;;;;;5.20;2.97;;;;;;;16.85;63.42;97846.31;5111454;28;20112;-26
2022/12/31 00:51:30;;;;;;;7.13;3.15;;;;;;;16.87;63.38;97854.88;5111626;28;20031;-26
2022/12/31 00:53:56;;;;;;;8.30;2.95;;;;;;;16.92;63.25;97855.56;5111555;28;20430;-27
2022/12/31 00:56:24;;;;;;;4.13;2.60;;;;;;;16.90;63.32;97863.44;5111546;28;20051;-27
2022/12/31 00:58:50;;;;;;;8.43;3.17;;;;;;;16.90;63.43;97868.94;5123111;28;20448;-26
2022/12/31 01:01:32;;;;;;;7.18;2.80;;;;;;;16.85;63.34;97873.72;5126382;28;20031;-26
2022/12/31 01:04:08;;;;;;;8.73;3.30;;;;;;;16.86;63.40;97879.97;5111192;28;20027;-26
2022/12/31 01:06:33;;;;;;;6.88;3.17;;;;;;;16.86;63.44;97879.97;5120075;28;20027;-26
2022/12/31 01:08:59;;;;;;;5.80;2.83;;;;;;;16.85;63.43;97889.41;5117968;28;20428;-26
2022/12/31 01:11:28;;;;;;;7.22;3.35;;;;;;;16.90;63.13;97886.13;5131903;28;20027;-26
2022/12/31 01:14:05;;;;;;;6.82;2.83;;;;;;;16.81;63.48;97894.97;5115424;28;20111;-28
2022/12/31 01:16:37;;;;;;;4.40;2.60;;;;;;;16.83;63.35;97895.31;5116949;28;20116;-26
2022/12/31 01:19:06;;;;;;;5.90;2.80;;;;;;;16.84;63.46;97907.81;5131616;28;20054;-26
2022/12/31 01:21:33;;;;;;;5.50;2.80;;;;;;;16.89;63.32;97912.00;5122785;28;20509;-26
2022/12/31 01:23:59;;;;;;;7.13;3.22;;;;;;;16.88;63.28;97911.22;5110880;28;20032;-26
2022/12/31 01:26:25;;;;;;;5.25;3.00;;;;;;;16.86;63.61;97912.84;5111071;28;20023;-26
2022/12/31 01:28:51;;;;;;;7.05;2.90;;;;;;;16.84;63.35;97921.50;5126864;28;20478;-26
2022/12/31 01:31:19;;;;;;;7.80;2.90;;;;;;;16.82;63.49;97915.69;5114300;28;20027;-26
2022/12/31 01:33:45;;;;;;;5.43;2.75;;;;;;;16.82;63.47;97909.44;5117133;27;20029;-26
2022/12/31 01:36:13;;;;;;;5.90;2.83;;;;;;;16.86;63.28;97913.63;5136974;27;20027;-26
2022/12/31 01:38:40;;;;;;;7.07;3.17;;;;;;;16.81;63.71;97911.41;5128131;27;20020;-26
2022/12/31 01:41:06;;;;;;;6.35;2.83;;;;;;;16.81;63.41;97911.41;5130631;27;20030;-26
2022/12/31 01:43:47;;;;;;;5.03;2.97;;;;;;;16.76;63.47;97916.66;5123627;27;20015;-26
2022/12/31 01:46:19;;;;;;;7.75;3.47;;;;;;;16.71;63.78;97915.19;5117612;27;20025;-26
2022/12/31 01:48:50;;;;;;;5.43;2.63;;;;;;;16.80;63.69;97920.06;5125113;27;20376;-26
2022/12/31 01:51:16;;;;;;;6.20;3.25;;;;;;;16.78;63.51;97915.03;5116573;27;20034;-26
2022/12/31 01:53:42;;;;;;;6.10;3.05;;;;;;;16.84;63.20;97913.28;5116710;28;20106;-26
2022/12/31 01:56:07;;;;;;;6.15;2.90;;;;;;;16.80;63.47;97915.38;5116683;28;20110;-26
2022/12/31 01:58:41;;;;;;;7.55;3.10;;;;;;;16.83;63.54;97919.19;5119362;27;20423;-26
2022/12/31 02:01:08;;;;;;;6.80;3.25;;;;;;;16.77;63.53;97915.44;5116283;28;20247;-26
2022/12/31 02:03:35;;;;;;;5.65;3.13;;;;;;;16.82;63.42;97917.66;5116373;28;20058;-26
2022/12/31 02:06:17;;;;;;;3.67;2.50;;;;;;;16.82;63.44;97918.41;5122966;27;20035;-25
2022/12/31 02:08:43;;;;;;;8.65;2.67;;;;;;;16.80;63.53;97918.09;5134987;27;20063;-26
2022/12/31 02:11:21;;;;;;;5.57;2.50;;;;;;;16.80;63.52;97918.09;5116330;28;20399;-26
2022/12/31 02:13:47;;;;;;;5.15;2.80;;;;;;;16.82;63.48;97915.69;5116239;27;20027;-26
2022/12/31 02:16:20;;;;;;;5.40;2.65;;;;;;;16.85;63.22;97917.56;5116003;28;20387;-26
2022/12/31 02:18:57;;;;;;;;;;;;;;;16.84;63.38;97910.53;5120297;27;20027;-26
2022/12/31 02:21:52;;;;;;;4.68;2.63;;;;;;;16.81;63.19;97911.41;5124177;27;19934;-26
2022/12/31 02:24:49;;;;;;;5.13;2.80;;;;;;;16.81;63.37;97905.19;5106446;28;20039;-26
2022/12/31 02:27:33;;;;;;;6.22;2.90;;;;;;;16.78;63.50;97908.78;5115704;28;20111;-26
2022/12/31 02:30:18;;;;;;;5.57;4.03;;;;;;;16.77;63.41;97904.50;5115584;28;21792;-25
2022/12/31 02:33:00;;;;;;;6.57;2.40;;;;;;;16.74;63.52;97903.38;5115798;28;20024;-26
2022/12/31 02:36:09;;;;;;;6.15;2.60;;;;;;;16.71;63.66;97901.50;5123462;27;20019;-26
2022/12/31 02:38:40;;;;;;;3.83;2.47;;;;;;;16.80;63.46;97909.88;5129069;27;20532;-26
2022/12/31 02:41:48;;;;;;;4.70;2.47;;;;;;;16.74;63.66;97899.88;5130314;27;20498;-26
2022/12/31 02:43:57;;;;;;;4.03;2.38;;;;;;;16.76;63.46;97902.94;5123814;27;20035;-25
2022/12/31 02:46:40;;;;;;;3.20;2.45;;;;;;;16.76;63.46;97892.75;5115482;27;20019;-25
2022/12/31 02:49:17;;;;;;;3.72;2.40;;;;;;;16.77;63.54;97897.03;5129164;27;20128;-26
2022/12/31 02:51:43;;;;;;;4.10;2.42;;;;;;;16.75;63.47;97898.66;5136115;27;20023;-25
2022/12/31 02:54:31;;;;;;;3.88;2.33;;;;;;;16.73;63.83;97899.09;5135833;27;20026;-26
2022/12/31 02:57:03;;;;;;;4.38;2.40;;;;;;;16.74;63.74;97902.59;5135842;27;20054;-26
2022/12/31 03:02:23;;;;;;;5.72;2.40;;;;;;;16.79;63.55;97902.88;5132967;27;20091;-26
2022/12/31 03:04:51;;;;;;;3.88;2.28;;;;;;;16.75;63.50;97902.19;5114925;28;20423;-26
2022/12/31 03:07:28;;;;;;;6.68;2.50;;;;;;;16.75;63.45;97907.66;5128546;27;20023;-26
2022/12/31 03:09:54;;;;;;;6.45;2.40;;;;;;;16.73;63.57;97906.53;5115074;28;20417;-26
2022/12/31 03:15:18;;;;;;;6.10;2.72;;;;;;;16.77;63.30;97909.97;5115225;28;20113;-26
2022/12/31 03:17:47;;;;;;;6.15;2.58;;;;;;;16.70;63.64;97921.88;5114785;28;20023;-26
2022/12/31 03:22:56;;;;;;;4.35;2.67;;;;;;;16.64;63.82;97907.16;5114708;28;20070;-26
2022/12/31 03:25:40;;;;;;;4.28;2.47;;;;;;;16.70;63.71;97905.44;5113459;28;20487;-26
2022/12/31 03:28:11;;;;;;;5.35;2.58;;;;;;;16.71;63.63;97906.97;5108641;27;20023;-26
2022/12/31 03:30:40;;;;;;;7.47;2.72;;;;;;;16.67;63.77;97906.31;5125557;27;20031;-26
2022/12/31 03:33:06;;;;;;;3.75;2.75;;;;;;;16.66;63.65;97910.25;5117378;27;20053;-26
2022/12/31 03:35:34;;;;;;;4.15;2.50;;;;;;;16.68;63.53;97905.13;5125941;27;20107;-27
2022/12/31 03:38:00;;;;;;;4.05;2.55;;;;;;;16.69;63.58;97901.16;5098486;27;20027;-26
2022/12/31 03:40:27;;;;;;;6.78;2.97;;;;;;;16.75;63.38;97904.91;5122893;27;20136;-26
2022/12/31 03:42:53;;;;;;;4.28;2.50;;;;;;;16.74;63.56;97910.81;5127603;27;20468;-26
2022/12/31 03:45:19;;;;;;;3.78;2.42;;;;;;;16.68;63.46;97913.34;5124652;27;20068;-26
2022/12/31 03:47:45;;;;;;;7.93;3.20;;;;;;;16.69;63.52;97898.41;5117920;27;20352;-26
2022/12/31 03:50:13;;;;;;;4.28;2.45;;;;;;;16.64;63.66;97901.69;5124403;27;20023;-25
2022/12/31 03:52:38;;;;;;;5.60;2.30;;;;;;;16.69;63.54;97908.63;5117301;27;20020;-26
2022/12/31 03:55:05;;;;;;;4.60;3.00;;;;;;;16.70;63.57;97921.09;5114286;28;20448;-25
2022/12/31 03:57:31;;;;;;;4.97;2.72;;;;;;;16.72;63.25;97911.25;5113612;28;20096;-26
2022/12/31 03:59:57;;;;;;;5.43;2.55;;;;;;;16.72;63.39;97924.19;5114118;28;20373;-26
2022/12/31 04:02:25;;;;;;;5.20;2.65;;;;;;;16.69;63.37;97914.84;5114302;28;20060;-26
2022/12/31 04:04:51;;;;;;;5.80;2.63;;;;;;;16.65;63.56;97918.91;5095762;28;20114;-26
2022/12/31 04:07:16;;;;;;;4.45;2.63;;;;;;;16.64;63.97;97911.88;5113910;28;20057;-25
2022/12/31 04:09:42;;;;;;;4.97;2.70;;;;;;;16.67;63.63;97908.28;5113617;28;20024;-28
2022/12/31 04:12:07;;;;;;;4.30;2.40;;;;;;;16.64;63.60;97907.16;5113753;28;20055;-26
2022/12/31 04:14:33;;;;;;;4.10;2.85;;;;;;;16.65;63.70;97916.16;5114163;28;20045;-26
2022/12/31 04:16:58;;;;;;;3.63;2.40;;;;;;;16.69;63.42;97909.38;5114010;28;20480;-26
2022/12/31 04:19:24;;;;;;;5.07;2.25;;;;;;;16.66;63.49;97918.47;5113872;28;20031;-26
2022/12/31 04:21:50;;;;;;;4.72;2.78;;;;;;;16.65;63.72;97919.66;5113726;28;20038;-26
2022/12/31 04:24:15;;;;;;;4.97;2.58;;;;;;;16.71;63.36;97926.16;5113890;28;20036;-26
2022/12/31 04:26:42;;;;;;;4.78;2.55;;;;;;;16.71;63.27;97931.63;5113820;28;20023;-26
2022/12/31 04:29:08;;;;;;;3.85;2.25;;;;;;;16.67;63.47;97932.94;5113537;28;20031;-27
2022/12/31 04:31:34;;;;;;;6.10;2.70;;;;;;;16.57;63.90;97933.94;5113639;28;20024;-25
2022/12/31 04:33:59;;;;;;;5.00;2.38;;;;;;;16.62;63.73;97928.75;5114140;28;20012;-27
2022/12/31 04:36:25;;;;;;;6.78;2.70;;;;;;;16.65;63.65;97930.63;5116015;28;20380;-27
2022/12/31 04:38:50;;;;;;;4.38;2.65;;;;;;;16.70;63.36;97934.78;5124839;28;20024;-27
2022/12/31 04:41:16;;;;;;;4.05;2.55;;;;;;;16.64;63.55;97923.59;5129749;28;20054;-26
2022/12/31 04:43:43;;;;;;;3.47;2.40;;;;;;;16.66;63.61;97943.13;5125057;28;20019;-26
2022/12/31 04:46:08;;;;;;;3.58;2.47;;;;;;;16.62;63.89;97939.69;5113483;28;20030;-27
2022/12/31 04:48:34;;;;;;;5.38;2.67;;;;;;;16.61;63.80;97940.88;5104850;28;20023;-26
2022/12/31 04:50:59;;;;;;;5.40;2.53;;;;;;;16.61;63.73;97940.09;5120278;28;20030;-26
2022/12/31 04:53:25;;;;;;;4.28;2.60;;;;;;;16.55;63.79;97936.34;5124619;28;20062;-26
2022/12/31 04:55:51;;;;;;;4.30;2.45;;;;;;;16.57;63.78;97934.69;5113559;28;20027;-26
2022/12/31 04:58:17;;;;;;;5.65;2.67;;;;;;;16.56;63.72;97938.66;5104686;28;20443;-26
2022/12/31 05:00:45;;;;;;;4.00;2.60;;;;;;;16.60;63.65;97949.50;5117543;28;20119;-25
2022/12/31 05:03:11;;;;;;;4.05;2.35;;;;;;;16.58;63.74;97955.41;5113679;28;20027;-28
2022/12/31 05:05:42;;;;;;;4.18;2.60;;;;;;;16.70;63.47;97943.00;5129999;28;20023;-27
2022/12/31 05:08:09;;;;;;;7.28;2.72;;;;;;;16.68;63.40;97954.44;5126014;27;20034;-25
2022/12/31 05:10:34;;;;;;;5.43;2.60;;;;;;;16.66;63.57;97959.56;5117636;27;20024;-26
2022/12/31 05:13:00;;;;;;;3.28;2.50;;;;;;;16.63;63.46;97965.88;5116963;28;20024;-26
2022/12/31 05:15:25;;;;;;;5.85;2.63;;;;;;;16.63;63.35;97960.41;5117359;28;20018;-26
2022/12/31 05:17:51;;;;;;;4.80;2.88;;;;;;;16.63;63.44;97965.88;5117275;28;20027;-27
2022/12/31 05:20:16;;;;;;;6.55;3.00;;;;;;;16.61;63.51;97962.78;5117114;28;20019;-26
2022/12/31 05:22:42;;;;;;;5.55;2.75;;;;;;;16.61;63.74;97968.25;5116929;28;20094;-26
2022/12/31 05:25:07;;;;;;;5.95;2.70;;;;;;;16.61;63.47;97970.22;5117150;28;20032;-26
2022/12/31 05:27:33;;;;;;;5.93;2.95;;;;;;;16.61;63.42;97973.72;5116966;27;20444;-26
2022/12/31 05:29:59;;;;;;;4.15;2.38;;;;;;;16.56;63.73;97978.97;5116955;28;20034;-26
2022/12/31 05:32:25;;;;;;;6.65;2.80;;;;;;;16.51;63.86;97974.75;5117164;28;20490;-26
2022/12/31 05:34:50;;;;;;;3.65;2.55;;;;;;;16.59;63.67;97973.38;5117122;27;20035;-26
2022/12/31 05:37:16;;;;;;;4.10;2.83;;;;;;;16.60;63.65;97974.16;5117223;28;20459;-26
2022/12/31 05:39:41;;;;;;;5.22;2.58;;;;;;;16.52;63.73;97988.03;5116829;28;20020;-26
2022/12/31 05:42:07;;;;;;;6.65;3.35;;;;;;;16.55;63.79;97975.47;5127071;27;20019;-26
2022/12/31 05:44:32;;;;;;;3.20;2.33;;;;;;;16.52;63.83;97984.53;5118557;27;20034;-26
2022/12/31 05:46:58;;;;;;;5.55;2.97;;;;;;;16.56;63.81;97985.22;5130317;27;20026;-26
2022/12/31 05:49:23;;;;;;;3.85;2.80;;;;;;;16.56;63.58;97990.69;5123186;27;20023;-26
2022/12/31 05:51:48;;;;;;;4.55;2.35;;;;;;;16.58;63.48;97988.28;5127376;27;20466;-27
2022/12/31 05:54:14;;;;;;;3.88;2.53;;;;;;;16.52;63.95;98003.69;5116251;28;20515;-26
2022/12/31 05:56:39;;;;;;;4.78;2.92;;;;;;;16.51;63.90;98002.91;5116881;28;20016;-26
2022/12/31 05:59:05;;;;;;;5.15;2.83;;;;;;;16.51;63.90;98007.63;5116145;27;20353;-26
2022/12/31 06:01:30;;;;;;;5.00;2.80;;;;;;;16.60;63.39;98010.53;5114767;28;20050;-26
2022/12/31 06:03:55;;;;;;;4.90;2.75;;;;;;;16.63;63.32;98009.72;5116094;28;20019;-25
2022/12/31 06:06:21;;;;;;;4.97;2.50;;;;;;;16.52;63.83;98009.16;5126903;27;20471;-26
2022/12/31 06:08:50;;;;;;;4.63;2.90;;;;;;;16.58;63.71;98012.16;5136241;27;20046;-26
2022/12/31 06:11:16;;;;;;;5.43;3.28;;;;;;;16.54;63.79;98020.47;5136330;27;20058;-26
2022/12/31 06:13:41;;;;;;;4.32;2.97;;;;;;;16.54;63.72;98023.22;5101789;28;20046;-27
2022/12/31 06:16:08;;;;;;;7.85;3.22;;;;;;;16.62;63.56;98024.59;5115679;28;20023;-26
2022/12/31 06:18:33;;;;;;;4.97;3.10;;;;;;;16.56;63.48;98023.56;5115470;27;20099;-26
2022/12/31 06:20:59;;;;;;;4.97;2.58;;;;;;;16.56;63.60;98028.28;5116101;28;20054;-26
2022/12/31 06:23:25;;;;;;;5.45;2.92;;;;;;;16.57;63.59;98030.56;5116319;28;20034;-28
2022/12/31 06:25:50;;;;;;;5.40;2.78;;;;;;;16.53;63.64;98021.66;5115817;28;20463;-26
2022/12/31 06:28:15;;;;;;;7.80;2.97;;;;;;;16.50;63.74;98030.72;5115912;28;20073;-26
2022/12/31 06:30:41;;;;;;;5.60;2.97;;;;;;;16.56;63.61;98031.78;5115790;28;20015;-26
2022/12/31 06:33:06;;;;;;;6.47;2.85;;;;;;;16.58;63.39;98039.53;5116032;28;20111;-26
2022/12/31 06:35:32;;;;;;;5.13;2.78;;;;;;;16.59;63.49;98041.09;5115920;27;20114;-26
2022/12/31 06:37:57;;;;;;;8.00;3.10;;;;;;;16.53;63.70;98043.59;5128892;27;20092;-26
2022/12/31 06:40:23;;;;;;;5.47;2.70;;;;;;;16.54;63.64;98045.13;5125593;27;20034;-27
2022/12/31 06:42:49;;;;;;;4.45;3.25;;;;;;;16.53;63.66;98051.78;5119288;27;20117;-26
2022/12/31 06:45:14;;;;;;;5.03;2.90;;;;;;;16.49;63.76;98051.09;5115569;28;20031;-26
2022/12/31 06:47:40;;;;;;;5.82;3.30;;;;;;;16.51;63.85;98054.19;5120433;27;20114;-26
2022/12/31 06:50:06;;;;;;;6.55;3.30;;;;;;;16.52;63.82;98053.75;5120004;27;20054;-26
2022/12/31 06:52:31;;;;;;;6.30;3.38;;;;;;;16.55;63.78;98059.59;5113279;28;20485;-26
2022/12/31 06:54:58;;;;;;;5.03;3.33;;;;;;;16.51;63.62;98063.19;5113252;27;20031;-26
2022/12/31 06:57:23;;;;;;;8.15;3.22;;;;;;;16.57;63.67;98062.69;5113102;28;20051;-26
2022/12/31 06:59:50;;;;;;;7.10;3.28;;;;;;;16.53;63.71;98062.75;5112958;27;20160;-26
2022/12/31 07:02:52;;;;;;;5.50;2.85;;;;;;;16.58;63.43;98061.44;5112732;28;20106;-26
2022/12/31 07:05:38;;;;;;;5.00;2.88;;;;;;;16.52;63.60;98069.41;5124129;27;20066;-26
2022/12/31 07:08:39;;;;;;;5.07;2.90;;;;;;;16.61;63.60;98072.34;5132659;27;20023;-26
2022/12/31 07:11:05;;;;;;;5.90;3.13;;;;;;;16.60;63.61;98076.28;5112254;28;20426;-27
2022/12/31 07:13:58;;;;;;;5.60;3.28;;;;;;;16.58;63.56;98081.41;5112150;28;20027;-26
2022/12/31 07:17:23;;;;;;;6.68;3.13;;;;;;;16.53;63.65;98087.41;5112659;28;20032;-26
2022/12/31 07:20:20;;;;;;;5.40;3.30;;;;;;;16.51;63.68;98095.25;5049629;28;20037;-26
2022/12/31 07:22:47;;;;;;;3.97;3.20;;;;;;;16.47;63.91;98089.09;5041007;28;20049;-26
2022/12/31 07:25:14;;;;;;;4.90;2.90;;;;;;;16.43;64.34;98089.19;5049223;28;20037;-26
2022/12/31 07:28:13;;;;;;;5.93;3.30;;;;;;;16.51;63.76;98106.22;5049579;28;20040;-27
2022/12/31 07:30:54;;;;;;;6.15;3.28;;;;;;;16.58;63.55;98095.09;5049417;28;20041;-26
2022/12/31 07:33:45;;;;;;;6.88;3.10;;;;;;;16.50;63.72;98099.19;5049395;28;20476;-26
2022/12/31 07:36:46;;;;;;;4.35;2.90;;;;;;;16.53;63.64;98101.09;5046934;28;20127;-26
2022/12/31 07:39:18;;;;;;;5.03;3.20;;;;;;;16.55;63.59;98109.66;5042028;28;20055;-26
2022/12/31 07:41:52;;;;;;;7.72;3.22;;;;;;;16.52;63.59;98105.81;5049487;28;20024;-27
2022/12/31 07:44:17;;;;;;;6.57;3.22;;;;;;;16.53;63.62;98109.31;5048320;28;20544;-26
2022/12/31 07:46:51;;;;;;;6.07;3.55;;;;;;;16.49;63.74;98106.63;5048247;28;20124;-26
2022/12/31 07:49:17;;;;;;;5.90;3.30;;;;;;;16.52;63.64;98113.25;5048425;28;20514;-26
2022/12/31 07:51:43;;;;;;;5.22;2.88;;;;;;;16.53;63.70;98114.78;5112403;27;20114;-27
2022/12/31 07:54:08;;;;;;;5.57;3.28;;;;;;;16.53;63.89;98117.53;5111754;28;20027;-26
2022/12/31 07:56:34;;;;;;;5.68;3.03;;;;;;;16.57;63.56;98109.97;5114744;27;20028;-26
2022/12/31 07:59:30;;;;;;;4.18;2.97;;;;;;;16.55;63.51;98117.88;5111364;28;20035;-26
2022/12/31 08:02:24;;;;;;;4.15;3.38;;;;;;;16.51;63.53;98117.94;5120451;27;20054;-26
2022/12/31 08:05:04;;;;;;;7.22;3.20;;;;;;;16.32;64.56;98115.25;5111281;28;20449;-26
2022/12/31 08:07:42;;;;;;;6.45;3.08;;;;;;;16.40;64.39;98111.16;5111593;28;20581;-26
2022/12/31 08:24:18;;;;;;;6.45;3.35;;;;;;;16.59;63.67;98134.22;5111245;28;20088;-26
2022/12/31 08:27:12;;;;;;;5.88;3.30;;;;;;;16.59;63.77;98132.25;5127748;28;20030;-26
2022/12/31 08:29:52;;;;;;;7.50;3.25;;;;;;;16.55;63.89;98133.53;5117694;28;20088;-26
2022/12/31 08:32:30;;;;;;;5.38;3.10;;;;;;;16.51;64.06;98139.84;5111609;28;20104;-26
2022/12/31 08:35:10;;;;;;;5.68;2.97;;;;;;;16.57;63.80;98153.81;5109372;28;20460;-26
2022/12/31 08:37:58;;;;;;;5.72;3.00;;;;;;;16.55;63.83;98155.44;5118835;28;20023;-26
2022/12/31 08:40:50;;;;;;;4.45;3.72;;;;;;;16.49;64.12;98157.91;5111643;28;20436;-26
2022/12/31 08:43:48;;;;;;;4.50;3.55;;;;;;;16.52;64.20;98162.53;5114525;27;20032;-26
2022/12/31 08:46:43;;;;;;;4.57;2.70;;;;;;;16.49;64.09;98157.91;5067322;28;20449;-26
2022/12/31 08:49:10;;;;;;;7.18;3.05;;;;;;;16.56;63.75;98157.78;5114596;28;20032;-26
2022/12/31 08:51:35;;;;;;;8.23;3.38;;;;;;;16.49;64.15;98163.38;5115551;28;20160;-26
2022/12/31 08:54:01;;;;;;;5.72;3.20;;;;;;;16.50;64.14;98165.69;5115719;27;20106;-26
2022/12/31 08:56:28;;;;;;;5.15;3.33;;;;;;;16.52;64.22;98162.53;5115834;27;20102;-26
2022/12/31 08:59:13;;;;;;;7.65;3.33;;;;;;;16.49;64.15;98168.84;5100523;27;20019;-26
2022/12/31 09:02:06;;;;;;;7.38;3.40;;;;;;;16.54;63.93;98171.09;5135730;27;20049;-24
2022/12/31 09:04:53;;;;;;;6.95;3.17;;;;;;;16.49;64.11;98180.59;5115350;28;20032;-26
2022/12/31 09:07:39;;;;;;;6.18;2.80;;;;;;;16.49;64.25;98190.75;5133433;27;20075;-26
2022/12/31 09:10:22;;;;;;;6.15;3.33;;;;;;;16.48;64.47;98191.97;5116600;27;20027;-26
2022/12/31 09:12:50;;;;;;;8.45;3.00;;;;;;;16.50;64.25;98195.06;5115074;28;20110;-26
2022/12/31 09:15:57;;;;;;;5.93;3.42;;;;;;;16.45;64.49;98190.84;5128787;27;20035;-26
2022/12/31 09:18:23;;;;;;;6.30;3.10;;;;;;;16.46;64.27;98197.84;5115228;27;20016;-26
2022/12/31 09:20:49;;;;;;;6.45;3.20;;;;;;;16.51;63.99;98200.09;5114952;28;20501;-26
2022/12/31 09:23:15;;;;;;;6.25;3.20;;;;;;;16.49;64.15;98202.50;5115036;28;20020;-26
2022/12/31 09:26:09;;;;;;;5.63;3.25;;;;;;;16.44;64.54;98213.19;5114799;28;20030;-26
2022/12/31 09:28:47;;;;;;;3.83;2.65;;;;;;;16.51;64.30;98202.06;5111935;28;20420;-27
2022/12/31 09:31:30;;;;;;;5.60;2.80;;;;;;;16.46;64.47;98211.53;5115011;28;20059;-26
2022/12/31 09:34:36;;;;;;;5.25;3.03;;;;;;;16.46;64.27;98213.50;5116590;27;20456;-26
2022/12/31 09:37:10;;;;;;;11.40;3.80;;;;;;;16.46;64.25;98208.03;5108759;28;20042;-26
2022/12/31 09:39:42;;;;;;;8.32;3.30;;;;;;;16.52;64.05;98212.63;5114562;28;20356;-25
2022/12/31 09:42:45;;;;;;;6.93;3.55;;;;;;;16.50;64.22;98216.97;5114928;27;20032;-26
2022/12/31 09:45:32;;;;;;;7.27;3.30;;;;;;;16.55;63.88;98208.25;5114654;27;20027;-26
2022/12/31 09:48:24;;;;;;;5.40;3.67;;;;;;;16.59;63.73;98205.44;5124225;27;20107;-26
2022/12/31 09:50:58;;;;;;;5.60;3.20;;;;;;;16.48;64.24;98211.91;5109422;27;20030;-26
2022/12/31 09:53:42;;;;;;;6.93;3.20;;;;;;;16.55;63.89;98211.00;5113674;28;20028;-26
2022/12/31 09:56:13;;;;;;;5.95;3.65;;;;;;;16.46;64.38;98208.81;5114658;27;20065;-26
2022/12/31 09:59:17;;;;;;;5.10;3.30;;;;;;;16.58;64.05;98210.13;5126290;27;20023;-26
2022/12/31 10:01:58;;;;;;;6.97;3.47;;;;;;;16.50;64.34;98206.78;5095694;28;20055;-26
2022/12/31 10:05:01;;;;;;;4.68;3.28;;;;;;;16.51;64.34;98216.53;5114039;28;20039;-26
2022/12/31 10:07:35;;;;;;;8.77;3.90;;;;;;;16.45;64.67;98211.97;5113876;28;20459;-26
2022/12/31 10:10:29;;;;;;;6.18;3.17;;;;;;;16.52;64.36;98207.13;5114158;28;20023;-26
2022/12/31 10:13:30;;;;;;;4.93;3.30;;;;;;;16.56;64.37;98203.56;5113763;28;20020;-26
2022/12/31 10:16:25;;;;;;;6.13;3.00;;;;;;;16.61;64.07;98209.28;5086033;27;20449;-26
2022/12/31 10:19:20;;;;;;;6.80;3.45;;;;;;;16.42;65.00;98207.34;5129147;27;20019;-26
2022/12/31 10:22:21;;;;;;;8.88;3.50;;;;;;;16.46;64.63;98189.63;5113882;28;20102;-26
2022/12/31 10:24:59;;;;;;;7.05;3.60;;;;;;;16.42;64.81;98191.69;5065674;28;20381;-26
2022/12/31 10:27:52;;;;;;;5.75;3.55;;;;;;;16.56;64.43;98201.59;5095364;28;20032;-26
2022/12/31 10:30:20;;;;;;;5.22;3.33;;;;;;;16.45;64.95;98211.97;5113699;28;20040;-26
2022/12/31 10:33:17;;;;;;;6.90;3.78;;;;;;;16.52;64.55;98195.41;5125731;27;20034;-26
2022/12/31 10:35:53;;;;;;;8.02;3.40;;;;;;;16.58;64.24;98198.41;5111633;28;20035;-26
2022/12/31 10:38:44;;;;;;;7.60;3.45;;;;;;;16.52;64.80;98193.44;5127068;27;20023;-26
2022/12/31 10:41:47;;;;;;;7.32;3.30;;;;;;;16.49;64.63;98197.00;5113567;27;20040;-26
2022/12/31 10:44:35;;;;;;;5.72;3.47;;;;;;;16.48;65.04;98205.66;5113364;28;20031;-26
2022/12/31 10:47:12;;;;;;;7.93;3.67;;;;;;;16.55;64.93;98193.78;5117516;27;20027;-26
2022/12/31 10:50:14;;;;;;;6.32;3.47;;;;;;;16.50;64.85;98186.84;5123808;27;20880;-26
2022/12/31 10:52:55;;;;;;;6.85;3.63;;;;;;;16.57;64.51;98189.41;5121549;27;20067;-26
2022/12/31 10:55:26;;;;;;;6.25;3.47;;;;;;;16.58;64.54;98199.19;5113253;27;20039;-26
2022/12/31 10:58:13;;;;;;;9.23;3.53;;;;;;;16.49;64.94;98188.81;5112755;28;20048;-26
2022/12/31 11:01:22;;;;;;;6.40;3.42;;;;;;;16.50;64.90;98193.09;5112695;28;20090;-26
2022/12/31 11:03:59;;;;;;;9.10;3.80;;;;;;;16.50;65.03;98192.31;5104870;27;20105;-26
2022/12/31 11:06:43;;;;;;;9.90;4.18;;;;;;;16.49;64.79;98188.03;5121522;27;20038;-26
2022/12/31 11:09:46;;;;;;;5.78;3.35;;;;;;;16.55;64.55;98183.59;5113166;27;20031;-27
2022/12/31 11:12:36;;;;;;;10.87;3.90;;;;;;;16.50;64.97;98192.31;5097275;28;20027;-26
2022/12/31 11:15:19;;;;;;;9.13;3.67;;;;;;;16.50;64.72;98181.34;5112689;28;20043;-27
2022/12/31 11:18:29;;;;;;;8.35;3.97;;;;;;;16.51;64.90;98180.16;5126702;27;20050;-26
2022/12/31 11:21:17;;;;;;;9.80;3.60;;;;;;;16.39;65.40;98180.81;5120095;27;20034;-26
2022/12/31 11:24:25;;;;;;;10.27;4.22;;;;;;;16.44;65.30;98183.06;5118181;27;20026;-26
2022/12/31 11:27:15;;;;;;;12.02;3.78;;;;;;;16.54;64.71;98176.59;5119402;27;20122;-26
2022/12/31 11:30:22;;;;;;;9.95;4.05;;;;;;;16.55;64.53;98172.66;5112546;28;20031;-27
2022/12/31 11:33:14;;;;;;;8.70;3.30;;;;;;;16.60;64.55;98171.38;5028062;28;20025;-26
2022/12/31 11:36:18;;;;;;;10.43;3.55;;;;;;;16.53;64.78;98169.56;5024095;28;20040;-26
2022/12/31 11:39:12;;;;;;;8.95;3.50;;;;;;;16.53;64.90;98164.09;5013610;28;20465;-26
2022/12/31 11:41:40;;;;;;;9.90;3.13;;;;;;;16.48;65.02;98168.09;5019182;28;20046;-26
2022/12/31 11:44:33;;;;;;;9.43;4.32;;;;;;;16.51;65.12;98166.47;5028012;28;20033;-27
2022/12/31 11:47:17;;;;;;;9.85;3.42;;;;;;;16.58;64.81;98163.56;5028953;28;20095;-26
2022/12/31 11:50:11;;;;;;;8.82;3.78;;;;;;;16.45;65.05;98168.91;5029134;28;20133;-26
2022/12/31 11:52:50;;;;;;;8.48;3.13;;;;;;;16.53;65.08;98158.59;5007700;28;20079;-26
2022/12/31 11:55:18;;;;;;;8.63;4.32;;;;;;;16.50;64.85;98159.44;5029288;28;20029;-26
2022/12/31 11:57:51;;;;;;;7.85;3.60;;;;;;;16.51;64.94;98152.78;5028743;28;20037;-27
2022/12/31 12:00:21;;;;;;;6.93;3.42;;;;;;;16.46;65.20;98151.28;5028429;28;20045;-27
2022/12/31 12:02:51;;;;;;;6.75;3.10;;;;;;;16.56;64.70;98138.59;5012693;28;20118;-26
2022/12/31 12:19:01;;;;;;;6.30;3.72;;;;;;;16.51;64.77;98152.78;5111001;28;20099;-26
2022/12/31 12:21:27;;;;;;;9.88;3.65;;;;;;;16.49;65.08;98152.44;5110573;28;20030;-26
2022/12/31 12:24:01;;;;;;;5.65;3.35;;;;;;;16.51;64.69;98144.56;5093301;28;20012;-25
2022/12/31 12:26:37;;;;;;;8.18;3.60;;;;;;;16.51;64.66;98144.56;5112294;28;20038;-26
2022/12/31 12:29:41;;;;;;;8.13;3.75;;;;;;;16.49;64.74;98138.72;5123603;28;20027;-26
2022/12/31 12:32:15;;;;;;;8.75;3.50;;;;;;;16.46;64.73;98137.59;5093977;28;20036;-26
2022/12/31 12:34:41;;;;;;;7.45;3.90;;;;;;;16.52;64.69;98135.94;5111568;28;20057;-26
2022/12/31 12:37:27;;;;;;;6.18;3.55;;;;;;;16.57;64.49;98140.13;5109535;28;20036;-26
2022/12/31 12:39:57;;;;;;;5.68;3.42;;;;;;;16.48;64.98;98128.97;5093228;28;20023;-26
2022/12/31 12:42:22;;;;;;;7.45;4.15;;;;;;;16.44;64.92;98129.03;5123507;28;20061;-26
2022/12/31 12:44:48;;;;;;;7.82;4.05;;;;;;;16.45;64.81;98122.38;5118172;28;20051;-26